Time;durP1;ratioP1;P1;durP2;ratioP2;P2;SDS_P1;SDS_P2;PMS_P1;PMS_P2;Temp;Humidity;BMP_temperature;BMP_pressure;BME280_temperature;BME280_humidity;BME280_pressure;Samples;Min_cycle;Max_cycle;Signal;HPM_P1;HPM_P2
2022/02/23 00:00:46;;;;;;;21.52;5.78;;;5.50;99.90;;;;;;5089026;28;20028;-55
2022/02/23 00:03:12;;;;;;;27.35;4.22;;;5.50;99.90;;;;;;5086572;28;20113;-53
2022/02/23 00:05:38;;;;;;;26.90;6.05;;;5.60;99.90;;;;;;5088753;28;20605;-57
2022/02/23 00:08:05;;;;;;;19.02;4.85;;;5.60;99.90;;;;;;5081549;28;20033;-56
2022/02/23 00:10:31;;;;;;;35.25;5.97;;;5.60;99.90;;;;;;5077144;28;20351;-57
2022/02/23 00:12:56;;;;;;;24.30;5.15;;;5.60;99.90;;;;;;5069046;28;20024;-57
2022/02/23 00:15:22;;;;;;;21.20;5.07;;;5.60;99.90;;;;;;5070102;28;20051;-56
2022/02/23 00:17:48;;;;;;;23.80;5.35;;;5.60;99.90;;;;;;5073716;28;20025;-56
2022/02/23 00:20:14;;;;;;;23.88;5.75;;;5.60;99.90;;;;;;5087953;28;20030;-50
2022/02/23 00:22:41;;;;;;;33.28;5.70;;;5.70;99.90;;;;;;5068820;28;20085;-52
2022/02/23 00:25:08;;;;;;;25.25;6.78;;;5.70;99.90;;;;;;5086442;28;20023;-54
2022/02/23 00:27:34;;;;;;;32.03;6.38;;;5.80;99.90;;;;;;5071467;28;20035;-52
2022/02/23 00:30:00;;;;;;;23.02;5.07;;;5.80;99.90;;;;;;5088861;28;20051;-52
2022/02/23 00:32:26;;;;;;;28.13;5.82;;;5.80;99.90;;;;;;5088484;28;20036;-51
2022/02/23 00:34:51;;;;;;;22.55;3.25;;;5.80;99.90;;;;;;5088231;28;20471;-51
2022/02/23 00:37:17;;;;;;;30.80;5.60;;;5.80;99.90;;;;;;5086933;28;20153;-54
2022/02/23 00:39:43;;;;;;;25.85;6.05;;;5.80;99.90;;;;;;5069016;28;20058;-54
2022/02/23 00:42:09;;;;;;;20.95;5.07;;;5.80;99.90;;;;;;5068874;28;20012;-55
2022/02/23 00:44:35;;;;;;;32.17;6.47;;;5.80;99.90;;;;;;5068725;28;20028;-52
2022/02/23 00:47:01;;;;;;;18.67;5.15;;;5.80;99.90;;;;;;5068501;28;20095;-53
2022/02/23 00:49:27;;;;;;;36.60;6.00;;;5.80;99.90;;;;;;5086579;28;20066;-53
2022/02/23 00:51:53;;;;;;;24.17;5.45;;;5.90;99.90;;;;;;5088856;28;20086;-54
2022/02/23 00:54:20;;;;;;;28.55;5.55;;;5.90;99.90;;;;;;5087123;28;20103;-57
2022/02/23 00:56:46;;;;;;;25.73;5.47;;;5.80;99.90;;;;;;5070094;28;20034;-53
2022/02/23 00:59:12;;;;;;;30.35;6.13;;;5.80;99.90;;;;;;5085157;28;20558;-56
2022/02/23 01:01:38;;;;;;;31.50;7.07;;;5.90;99.90;;;;;;5077079;28;20024;-55
2022/02/23 01:04:05;;;;;;;26.52;5.28;;;5.90;99.90;;;;;;5073361;28;20471;-55
2022/02/23 01:06:31;;;;;;;28.00;5.35;;;5.90;99.90;;;;;;5080636;28;20028;-55
2022/02/23 01:08:57;;;;;;;26.58;5.10;;;5.90;99.90;;;;;;5081654;28;20100;-55
2022/02/23 01:11:23;;;;;;;33.38;5.63;;;5.80;99.90;;;;;;5078137;28;20446;-53
2022/02/23 01:13:49;;;;;;;25.73;5.85;;;5.90;99.90;;;;;;5068930;28;20035;-53
2022/02/23 01:16:16;;;;;;;32.47;6.03;;;5.80;99.90;;;;;;5072893;28;20032;-53
2022/02/23 01:18:42;;;;;;;26.77;5.53;;;5.80;99.90;;;;;;5079386;28;20440;-54
2022/02/23 01:21:08;;;;;;;26.10;5.45;;;5.90;99.90;;;;;;5092663;28;20023;-56
2022/02/23 01:23:34;;;;;;;23.63;4.65;;;5.90;99.90;;;;;;5091823;28;20099;-55
2022/02/23 01:26:00;;;;;;;27.83;5.53;;;5.90;99.90;;;;;;5074215;28;20162;-53
2022/02/23 01:28:26;;;;;;;21.75;5.07;;;5.90;99.90;;;;;;5086473;28;20119;-54
2022/02/23 01:30:52;;;;;;;19.65;5.70;;;5.90;99.90;;;;;;5072139;28;20601;-55
2022/02/23 01:33:18;;;;;;;25.88;6.55;;;5.90;99.90;;;;;;5071688;28;20490;-55
2022/02/23 01:35:44;;;;;;;29.35;5.57;;;5.90;99.90;;;;;;5073065;28;20072;-55
2022/02/23 01:38:09;;;;;;;27.45;6.10;;;5.90;99.90;;;;;;5083060;28;20037;-52
2022/02/23 01:40:35;;;;;;;25.98;6.70;;;5.90;99.90;;;;;;5071931;28;20391;-53
2022/02/23 01:43:01;;;;;;;28.48;6.25;;;5.90;99.90;;;;;;5071485;28;20029;-53
2022/02/23 01:45:27;;;;;;;30.00;6.40;;;5.90;99.90;;;;;;5071735;28;20035;-58
2022/02/23 01:47:53;;;;;;;28.95;5.80;;;5.90;99.90;;;;;;5071539;28;20043;-53
2022/02/23 01:50:19;;;;;;;27.85;5.10;;;5.90;99.90;;;;;;5089871;28;20109;-53
2022/02/23 01:52:44;;;;;;;28.45;4.88;;;5.90;99.90;;;;;;5089992;28;20028;-51
2022/02/23 01:55:11;;;;;;;25.05;6.18;;;5.90;99.90;;;;;;5073144;28;20025;-51
2022/02/23 01:57:37;;;;;;;24.15;5.65;;;5.90;99.90;;;;;;5072015;28;20103;-53
2022/02/23 02:00:09;;;;;;;25.70;5.57;;;5.90;99.90;;;;;;5070299;28;20131;-52
2022/02/23 02:02:35;;;;;;;26.50;5.18;;;6.00;99.90;;;;;;5069167;28;20048;-53
2022/02/23 02:05:01;;;;;;;31.17;5.50;;;5.90;99.90;;;;;;5071800;28;20025;-53
2022/02/23 02:07:27;;;;;;;22.23;4.97;;;5.90;99.90;;;;;;5073382;28;20031;-53
2022/02/23 02:09:52;;;;;;;24.45;5.70;;;5.90;99.90;;;;;;5075077;28;20036;-54
2022/02/23 02:12:18;;;;;;;22.75;5.70;;;5.90;99.90;;;;;;5071811;28;20077;-55
2022/02/23 02:14:44;;;;;;;27.27;5.78;;;5.90;99.90;;;;;;5071163;28;20437;-56
2022/02/23 02:17:09;;;;;;;24.40;5.32;;;5.90;99.90;;;;;;5071407;28;20032;-50
2022/02/23 02:19:35;;;;;;;21.90;4.25;;;5.90;99.90;;;;;;5082110;28;20031;-53
2022/02/23 02:22:03;;;;;;;23.80;5.30;;;5.90;99.90;;;;;;5089071;28;20024;-54
2022/02/23 02:24:32;;;;;;;30.40;4.95;;;5.80;99.90;;;;;;5087759;28;20483;-51
2022/02/23 02:26:59;;;;;;;19.10;4.35;;;5.80;99.90;;;;;;5073019;28;20029;-51
2022/02/23 02:29:25;;;;;;;15.50;3.97;;;5.80;99.90;;;;;;5080413;28;20024;-55
2022/02/23 02:31:51;;;;;;;21.98;4.82;;;5.80;99.90;;;;;;5090904;28;20028;-57
2022/02/23 02:34:17;;;;;;;24.63;5.18;;;5.70;99.90;;;;;;5089175;28;20032;-52
2022/02/23 02:36:43;;;;;;;25.17;5.38;;;5.80;99.90;;;;;;5090730;28;20036;-56
2022/02/23 02:39:09;;;;;;;19.13;4.70;;;5.70;99.90;;;;;;5083151;28;20024;-57
2022/02/23 02:41:36;;;;;;;17.25;3.95;;;5.80;99.90;;;;;;5070858;28;20063;-54
2022/02/23 02:44:02;;;;;;;28.35;5.97;;;5.80;99.90;;;;;;5085121;28;20024;-53
2022/02/23 02:46:28;;;;;;;30.67;4.88;;;5.80;99.90;;;;;;5072392;28;20116;-54
2022/02/23 02:48:54;;;;;;;27.67;6.22;;;5.80;99.90;;;;;;5075515;28;20172;-53
2022/02/23 02:51:20;;;;;;;23.85;5.70;;;5.80;99.90;;;;;;5090000;28;20059;-55
2022/02/23 02:53:45;;;;;;;19.70;4.72;;;5.80;99.90;;;;;;5088602;28;20025;-57
2022/02/23 02:56:11;;;;;;;20.42;4.60;;;5.80;99.90;;;;;;5072189;28;20024;-56
2022/02/23 02:58:37;;;;;;;19.10;4.70;;;5.80;99.90;;;;;;5086876;28;20466;-51
2022/02/23 03:01:04;;;;;;;22.50;4.90;;;5.80;99.90;;;;;;5078923;28;20020;-53
2022/02/23 03:03:30;;;;;;;24.15;5.20;;;5.80;99.90;;;;;;5089980;28;20487;-54
2022/02/23 03:05:55;;;;;;;32.38;5.78;;;5.80;99.90;;;;;;5090531;28;20105;-53
2022/02/23 03:08:21;;;;;;;25.55;5.10;;;5.70;99.90;;;;;;5081713;28;20526;-55
2022/02/23 03:10:47;;;;;;;23.85;4.40;;;5.80;99.90;;;;;;5086668;28;20120;-54
2022/02/23 03:13:12;;;;;;;24.33;4.60;;;5.70;99.90;;;;;;5069845;28;20033;-52
2022/02/23 03:15:38;;;;;;;22.05;4.68;;;5.80;99.90;;;;;;5070173;28;20024;-52
2022/02/23 03:18:05;;;;;;;25.83;4.82;;;5.70;99.90;;;;;;5070159;28;20023;-56
2022/02/23 03:20:32;;;;;;;22.63;5.07;;;5.80;99.90;;;;;;5052520;28;20033;-51
2022/02/23 03:22:58;;;;;;;22.85;5.18;;;5.70;99.90;;;;;;5070528;28;20017;-54
2022/02/23 03:25:23;;;;;;;20.05;4.75;;;5.70;99.90;;;;;;5070142;28;20442;-53
2022/02/23 03:27:49;;;;;;;25.23;4.72;;;5.70;99.90;;;;;;5087549;28;20020;-55
2022/02/23 03:30:15;;;;;;;13.90;3.50;;;5.70;99.90;;;;;;5077112;28;20050;-55
2022/02/23 03:32:41;;;;;;;19.80;4.20;;;5.70;99.90;;;;;;5076863;28;20395;-57
2022/02/23 03:35:07;;;;;;;20.08;5.22;;;5.70;99.90;;;;;;5089822;28;20028;-52
2022/02/23 03:37:32;;;;;;;15.13;4.15;;;5.60;99.90;;;;;;5088982;28;20028;-55
2022/02/23 03:39:58;;;;;;;16.77;4.82;;;5.70;99.90;;;;;;5077040;28;20029;-57
2022/02/23 03:42:24;;;;;;;20.73;5.30;;;5.60;99.90;;;;;;5069372;28;20158;-53
2022/02/23 03:44:50;;;;;;;16.55;3.55;;;5.70;99.90;;;;;;5077597;28;20111;-52
2022/02/23 03:47:15;;;;;;;22.83;4.82;;;5.60;99.90;;;;;;5069601;28;20031;-54
2022/02/23 03:49:41;;;;;;;26.75;4.30;;;5.60;99.90;;;;;;5078540;28;20108;-55
2022/02/23 03:52:07;;;;;;;21.48;4.88;;;5.60;99.90;;;;;;5089526;28;20028;-55
2022/02/23 03:54:32;;;;;;;17.77;3.80;;;5.60;99.90;;;;;;5088082;28;20035;-53
2022/02/23 03:56:58;;;;;;;18.40;4.65;;;5.60;99.90;;;;;;5089246;28;20035;-50
2022/02/23 03:59:23;;;;;;;24.55;5.03;;;5.70;99.90;;;;;;5080568;28;20035;-57
2022/02/23 04:01:49;;;;;;;18.90;4.53;;;5.70;99.90;;;;;;5069500;28;20146;-56
2022/02/23 04:04:19;;;;;;;21.40;4.75;;;5.60;99.90;;;;;;5063689;28;20031;-54
2022/02/23 04:06:45;;;;;;;21.42;4.93;;;5.60;99.90;;;;;;5069559;28;20024;-53
2022/02/23 04:09:11;;;;;;;12.38;3.50;;;5.60;99.90;;;;;;5073052;28;20035;-52
2022/02/23 04:11:37;;;;;;;25.00;4.38;;;5.60;99.90;;;;;;5088789;28;20024;-50
2022/02/23 04:14:05;;;;;;;16.38;4.50;;;5.60;99.90;;;;;;5075569;28;20039;-56
2022/02/23 04:16:31;;;;;;;23.90;4.50;;;5.60;99.90;;;;;;5086001;28;20424;-54
2022/02/23 04:18:57;;;;;;;16.10;3.20;;;5.60;99.90;;;;;;5086594;28;20032;-52
2022/02/23 04:21:22;;;;;;;24.23;5.40;;;5.60;99.90;;;;;;5054197;28;20077;-53
2022/02/23 04:23:48;;;;;;;18.65;4.00;;;5.60;99.90;;;;;;5087337;28;20020;-55
2022/02/23 04:26:14;;;;;;;19.70;3.80;;;5.60;99.90;;;;;;5078151;28;20048;-55
2022/02/23 04:28:40;;;;;;;20.15;4.03;;;5.60;99.90;;;;;;5068929;28;20057;-55
2022/02/23 04:31:05;;;;;;;19.42;3.72;;;5.70;99.90;;;;;;5083688;28;20060;-51
2022/02/23 04:33:31;;;;;;;19.65;4.30;;;5.70;99.90;;;;;;5083336;28;20028;-51
2022/02/23 04:35:57;;;;;;;13.80;4.07;;;5.70;99.90;;;;;;5086105;28;20515;-53
2022/02/23 04:38:23;;;;;;;19.80;3.50;;;5.70;99.90;;;;;;5088722;28;20360;-53
2022/02/23 04:40:48;;;;;;;20.33;4.35;;;5.70;99.90;;;;;;5071731;28;20035;-53
2022/02/23 04:43:15;;;;;;;14.02;4.80;;;5.60;99.90;;;;;;5050990;28;20549;-55
2022/02/23 04:45:40;;;;;;;21.48;4.70;;;5.60;99.90;;;;;;5069988;28;20032;-54
2022/02/23 04:48:06;;;;;;;13.48;4.10;;;5.60;99.90;;;;;;5070079;28;20032;-54
2022/02/23 04:50:33;;;;;;;21.30;4.13;;;5.70;99.90;;;;;;5087577;28;20035;-54
2022/02/23 04:52:58;;;;;;;17.52;2.60;;;5.60;99.90;;;;;;5091266;28;20032;-55
2022/02/23 04:55:24;;;;;;;9.60;2.72;;;5.60;99.90;;;;;;5093041;28;20058;-55
2022/02/23 04:57:49;;;;;;;13.20;3.28;;;5.60;99.90;;;;;;5091124;28;20024;-52
2022/02/23 05:00:15;;;;;;;20.90;4.22;;;5.60;99.90;;;;;;5080433;28;20110;-52
2022/02/23 05:02:41;;;;;;;15.45;3.40;;;5.60;99.90;;;;;;5072510;28;20028;-54
2022/02/23 05:05:07;;;;;;;12.43;2.95;;;5.60;99.90;;;;;;5072381;28;20104;-53
2022/02/23 05:07:33;;;;;;;15.38;3.08;;;5.60;99.90;;;;;;5073980;28;20047;-52
2022/02/23 05:09:59;;;;;;;13.80;4.10;;;5.60;99.90;;;;;;5083799;28;20026;-55
2022/02/23 05:12:25;;;;;;;10.77;2.95;;;5.70;99.90;;;;;;5072380;28;20436;-51
2022/02/23 05:14:51;;;;;;;17.02;3.47;;;5.70;99.90;;;;;;5072496;28;20040;-52
2022/02/23 05:17:17;;;;;;;20.23;4.45;;;5.70;99.90;;;;;;5072672;28;20094;-51
2022/02/23 05:19:43;;;;;;;14.48;3.55;;;5.70;99.90;;;;;;5079758;28;20558;-54
2022/02/23 05:22:09;;;;;;;18.75;3.60;;;5.70;99.90;;;;;;5092061;28;20028;-52
2022/02/23 05:24:35;;;;;;;16.08;4.45;;;5.60;99.90;;;;;;5091831;28;20032;-55
2022/02/23 05:27:02;;;;;;;19.38;3.80;;;5.60;99.90;;;;;;5092429;28;20024;-53
2022/02/23 05:29:28;;;;;;;15.25;4.63;;;5.70;99.90;;;;;;5081810;28;20039;-51
2022/02/23 05:31:54;;;;;;;18.48;3.65;;;5.70;99.90;;;;;;5091597;28;20650;-54
2022/02/23 05:34:20;;;;;;;17.77;3.65;;;5.70;99.90;;;;;;5091931;28;20028;-53
2022/02/23 05:36:46;;;;;;;20.02;4.47;;;5.70;99.90;;;;;;5091878;28;20162;-52
2022/02/23 05:39:13;;;;;;;19.90;3.88;;;5.70;99.90;;;;;;5086547;28;20538;-53
2022/02/23 05:41:38;;;;;;;17.70;4.45;;;5.70;99.90;;;;;;5072102;28;20017;-52
2022/02/23 05:44:05;;;;;;;16.55;3.63;;;5.70;99.90;;;;;;5071590;28;20484;-55
2022/02/23 05:46:30;;;;;;;9.63;3.28;;;5.70;99.90;;;;;;5072227;28;20401;-53
2022/02/23 05:48:56;;;;;;;10.68;3.30;;;5.60;99.90;;;;;;5072109;28;20073;-51
2022/02/23 05:51:30;;;;;;;14.07;4.38;;;5.60;99.90;;;;;;5083768;28;20031;-54
2022/02/23 05:53:57;;;;;;;17.63;4.80;;;5.70;99.90;;;;;;5072591;28;20035;-50
2022/02/23 05:56:22;;;;;;;13.70;4.20;;;5.60;99.90;;;;;;5065833;28;20078;-56
2022/02/23 05:58:48;;;;;;;22.88;4.78;;;5.60;99.90;;;;;;5090020;28;20120;-53
2022/02/23 06:01:14;;;;;;;21.50;5.05;;;5.60;99.90;;;;;;5071433;28;20043;-52
2022/02/23 06:03:40;;;;;;;18.02;3.67;;;5.60;99.90;;;;;;5072930;28;20025;-56
2022/02/23 06:06:06;;;;;;;22.88;4.25;;;5.50;99.90;;;;;;5083775;28;20499;-57
2022/02/23 06:08:31;;;;;;;22.40;3.95;;;5.50;99.90;;;;;;5071321;28;20032;-54
2022/02/23 06:10:57;;;;;;;23.13;4.95;;;5.40;99.90;;;;;;5083266;28;20085;-55
2022/02/23 06:13:23;;;;;;;19.23;3.90;;;5.40;99.90;;;;;;5071726;28;20059;-56
2022/02/23 06:15:48;;;;;;;24.45;4.45;;;5.40;99.90;;;;;;5077233;28;20081;-55
2022/02/23 06:18:15;;;;;;;20.55;4.63;;;5.40;99.90;;;;;;5091408;28;20020;-50
2022/02/23 06:20:41;;;;;;;22.17;4.63;;;5.40;99.90;;;;;;5091498;28;20502;-53
2022/02/23 06:23:07;;;;;;;18.88;5.30;;;5.40;99.90;;;;;;5091146;28;20020;-53
2022/02/23 06:25:33;;;;;;;17.90;4.30;;;5.40;99.90;;;;;;5091640;28;20032;-57
2022/02/23 06:28:02;;;;;;;21.63;4.78;;;5.40;99.90;;;;;;5083759;28;20049;-52
2022/02/23 06:30:27;;;;;;;17.48;3.95;;;5.30;99.90;;;;;;5075126;28;20043;-56
2022/02/23 06:32:53;;;;;;;18.08;4.43;;;5.30;99.90;;;;;;5072094;28;20028;-51
2022/02/23 06:35:19;;;;;;;28.02;7.28;;;5.30;99.90;;;;;;5070892;28;20016;-57
2022/02/23 06:37:44;;;;;;;27.23;5.65;;;5.30;99.90;;;;;;5072042;28;20043;-55
2022/02/23 06:40:10;;;;;;;20.58;4.95;;;5.30;99.90;;;;;;5071124;28;20035;-55
2022/02/23 06:42:37;;;;;;;20.10;4.63;;;5.20;99.90;;;;;;5070910;28;20024;-53
2022/02/23 06:45:07;;;;;;;19.33;4.47;;;5.20;99.90;;;;;;5053069;28;20103;-52
2022/02/23 06:47:32;;;;;;;30.40;4.90;;;5.20;99.90;;;;;;5069460;28;20108;-56
2022/02/23 06:49:58;;;;;;;21.38;4.32;;;5.20;99.90;;;;;;5070593;28;20107;-54
2022/02/23 06:52:26;;;;;;;23.15;5.20;;;5.20;99.90;;;;;;5070399;28;20029;-55
2022/02/23 06:54:52;;;;;;;17.88;4.65;;;5.20;99.90;;;;;;5070173;28;20025;-51
2022/02/23 06:57:18;;;;;;;20.73;5.25;;;5.20;99.90;;;;;;5070500;28;20031;-56
2022/02/23 06:59:43;;;;;;;27.08;4.95;;;5.30;99.90;;;;;;5052379;28;20025;-52
2022/02/23 07:02:09;;;;;;;19.25;4.13;;;5.20;99.90;;;;;;5070276;28;20464;-55
2022/02/23 07:04:35;;;;;;;23.38;6.03;;;5.20;99.90;;;;;;5070421;28;20100;-52
2022/02/23 07:07:02;;;;;;;30.35;5.18;;;5.30;99.90;;;;;;5070554;28;20157;-55
2022/02/23 07:09:28;;;;;;;20.45;4.80;;;5.30;99.90;;;;;;5070466;28;20036;-55
2022/02/23 07:11:53;;;;;;;20.25;5.40;;;5.30;99.90;;;;;;5076246;28;20031;-56
2022/02/23 07:14:20;;;;;;;24.98;4.90;;;5.30;99.90;;;;;;5090462;28;20107;-57
2022/02/23 07:16:45;;;;;;;20.52;4.60;;;5.30;99.90;;;;;;5090202;28;20039;-54
2022/02/23 07:19:11;;;;;;;19.00;5.10;;;5.40;99.90;;;;;;5090320;28;20467;-56
2022/02/23 07:21:38;;;;;;;22.80;5.03;;;5.40;99.90;;;;;;5088431;28;20036;-56
2022/02/23 07:24:04;;;;;;;20.80;3.97;;;5.40;99.90;;;;;;5081721;28;20012;-56
2022/02/23 07:26:30;;;;;;;21.95;5.15;;;5.40;99.90;;;;;;5089899;28;20024;-54
2022/02/23 07:28:56;;;;;;;20.85;4.13;;;5.40;99.90;;;;;;5086029;28;20100;-52
2022/02/23 07:31:22;;;;;;;22.60;4.40;;;5.50;99.90;;;;;;5071199;28;20029;-57
2022/02/23 07:33:48;;;;;;;21.70;4.55;;;5.50;99.90;;;;;;5069378;28;20056;-54
2022/02/23 07:36:15;;;;;;;18.85;4.50;;;5.50;99.90;;;;;;5069702;28;20078;-54
2022/02/23 07:38:42;;;;;;;24.60;3.97;;;5.50;99.90;;;;;;5069771;28;20097;-55
2022/02/23 07:41:11;;;;;;;21.13;3.90;;;5.50;99.90;;;;;;5069899;28;20108;-56
2022/02/23 07:43:37;;;;;;;22.75;4.72;;;5.60;99.90;;;;;;5069161;28;20538;-52
2022/02/23 07:46:03;;;;;;;24.83;4.43;;;5.60;99.90;;;;;;5069804;28;20099;-57
2022/02/23 07:48:29;;;;;;;19.42;4.70;;;5.70;99.90;;;;;;5085961;28;20036;-56
2022/02/23 07:50:58;;;;;;;18.38;4.05;;;5.70;99.90;;;;;;5088652;28;20081;-57
2022/02/23 07:53:24;;;;;;;32.65;5.85;;;5.60;99.90;;;;;;5084837;28;20032;-53
2022/02/23 07:55:50;;;;;;;18.90;4.22;;;5.70;99.90;;;;;;5089202;28;20479;-55
2022/02/23 07:58:15;;;;;;;23.88;4.38;;;5.70;99.90;;;;;;5087930;28;20054;-55
2022/02/23 08:00:41;;;;;;;19.17;4.72;;;5.70;99.90;;;;;;5063757;28;20024;-55
2022/02/23 08:03:09;;;;;;;25.00;5.45;;;5.80;99.90;;;;;;5089697;28;20048;-55
2022/02/23 08:05:35;;;;;;;20.08;4.88;;;5.80;99.90;;;;;;5089278;28;20020;-53
2022/02/23 08:08:01;;;;;;;21.65;5.65;;;5.90;99.90;;;;;;5089177;28;20032;-55
2022/02/23 08:10:27;;;;;;;21.90;4.85;;;5.90;99.90;;;;;;5088456;28;20298;-56
2022/02/23 08:12:55;;;;;;;14.82;4.40;;;5.90;99.90;;;;;;5088579;28;20034;-57
2022/02/23 08:20:50;;;;;;;22.90;4.82;;;6.00;99.90;;;;;;5088123;28;20054;-57
2022/02/23 08:23:17;;;;;;;23.67;5.82;;;6.00;99.90;;;;;;5082232;28;20444;-54
2022/02/23 08:25:45;;;;;;;23.63;5.45;;;6.00;99.90;;;;;;5070835;28;20633;-53
2022/02/23 08:28:10;;;;;;;20.83;5.07;;;6.10;99.90;;;;;;5086245;28;20066;-52
2022/02/23 08:30:36;;;;;;;23.77;5.00;;;6.10;99.90;;;;;;5088042;28;20025;-56
2022/02/23 08:33:05;;;;;;;18.60;4.13;;;6.10;99.90;;;;;;5087503;28;20531;-53
2022/02/23 08:35:31;;;;;;;22.00;4.72;;;6.10;99.90;;;;;;5081185;28;20024;-55
2022/02/23 08:37:57;;;;;;;19.38;5.13;;;6.20;99.90;;;;;;5069224;28;20031;-57
2022/02/23 08:40:23;;;;;;;19.08;4.95;;;6.20;99.90;;;;;;5068443;28;20028;-55
2022/02/23 08:42:48;;;;;;;21.02;4.88;;;6.20;99.90;;;;;;5067502;28;20047;-56
2022/02/23 08:45:14;;;;;;;20.27;4.72;;;6.20;99.90;;;;;;5068500;28;20048;-57
2022/02/23 08:47:40;;;;;;;26.15;4.78;;;6.20;99.90;;;;;;5068228;28;20096;-55
2022/02/23 08:50:07;;;;;;;22.60;4.05;;;6.20;99.90;;;;;;5068007;28;20036;-57
2022/02/23 08:52:33;;;;;;;16.83;4.03;;;6.20;99.90;;;;;;5083216;28;20039;-57
2022/02/23 08:54:59;;;;;;;19.08;4.68;;;6.20;99.90;;;;;;5087342;28;20054;-55
2022/02/23 08:57:26;;;;;;;19.15;3.40;;;6.30;99.90;;;;;;5086280;28;20074;-56
2022/02/23 08:59:51;;;;;;;18.83;4.80;;;6.30;99.90;;;;;;5087824;28;20582;-54
2022/02/23 09:02:17;;;;;;;18.25;4.72;;;6.30;99.90;;;;;;5086433;28;20115;-54
2022/02/23 09:04:43;;;;;;;17.73;3.67;;;6.40;99.90;;;;;;5087965;28;20016;-56
2022/02/23 09:07:10;;;;;;;20.55;4.55;;;6.40;99.90;;;;;;5086190;28;20156;-56
2022/02/23 09:09:37;;;;;;;19.00;5.13;;;6.50;99.90;;;;;;5088045;28;20047;-56
2022/02/23 09:12:04;;;;;;;21.70;4.22;;;6.50;99.90;;;;;;5076091;28;20500;-53
2022/02/23 09:14:30;;;;;;;24.88;4.55;;;6.60;99.90;;;;;;5078989;28;20403;-52
2022/02/23 09:16:56;;;;;;;22.67;4.72;;;6.60;99.90;;;;;;5086604;28;20032;-51
2022/02/23 09:19:22;;;;;;;21.08;4.13;;;6.60;99.90;;;;;;5088088;28;20021;-55
2022/02/23 09:21:47;;;;;;;16.35;4.22;;;6.60;99.90;;;;;;5088211;28;20032;-56
2022/02/23 09:24:13;;;;;;;19.70;4.90;;;6.70;99.90;;;;;;5078513;28;20028;-55
2022/02/23 09:26:39;;;;;;;11.43;4.00;;;6.70;99.90;;;;;;5068343;28;20062;-55
2022/02/23 09:29:05;;;;;;;16.67;3.53;;;6.80;99.90;;;;;;5073784;28;20495;-53
2022/02/23 09:31:31;;;;;;;13.98;4.03;;;6.80;99.90;;;;;;5074733;28;20032;-55
2022/02/23 09:33:57;;;;;;;17.65;5.63;;;6.80;99.90;;;;;;5073580;28;20090;-56
2022/02/23 09:36:24;;;;;;;22.00;4.18;;;6.90;99.90;;;;;;5070793;28;20024;-56
2022/02/23 09:38:53;;;;;;;15.35;4.15;;;6.90;99.90;;;;;;5071145;28;20480;-52
2022/02/23 09:41:21;;;;;;;17.88;4.20;;;7.00;99.90;;;;;;5076498;28;20020;-55
2022/02/23 09:43:50;;;;;;;15.43;4.53;;;7.00;99.90;;;;;;5078299;28;20016;-52
2022/02/23 09:46:21;;;;;;;21.80;4.57;;;7.10;99.90;;;;;;5085213;28;20016;-53
2022/02/23 09:48:48;;;;;;;19.75;5.68;;;7.10;99.90;;;;;;5084876;28;20032;-55
2022/02/23 09:51:13;;;;;;;14.85;5.00;;;7.10;99.90;;;;;;5070859;28;20030;-54
2022/02/23 09:53:45;;;;;;;25.67;5.10;;;7.10;99.90;;;;;;5052889;28;20025;-56
2022/02/23 09:56:15;;;;;;;16.38;3.92;;;7.20;99.90;;;;;;5070990;28;20051;-55
2022/02/23 09:58:40;;;;;;;19.27;4.63;;;7.20;99.90;;;;;;5070738;28;20377;-52
2022/02/23 10:01:07;;;;;;;17.00;4.45;;;7.20;99.90;;;;;;5070669;28;20020;-55
2022/02/23 10:03:38;;;;;;;17.38;4.40;;;7.30;99.90;;;;;;5070325;28;20042;-51
2022/02/23 10:06:04;;;;;;;22.42;4.25;;;7.30;99.90;;;;;;5052856;28;20067;-56
2022/02/23 10:08:33;;;;;;;18.05;4.07;;;7.50;99.90;;;;;;5071046;28;20032;-57
2022/02/23 10:11:00;;;;;;;18.60;4.47;;;7.50;99.90;;;;;;5070578;28;20044;-57
2022/02/23 10:13:26;;;;;;;15.80;3.88;;;7.50;99.90;;;;;;5070101;28;20062;-55
2022/02/23 10:15:53;;;;;;;10.13;3.45;;;7.70;99.90;;;;;;5070461;28;20504;-54
2022/02/23 10:18:19;;;;;;;14.10;3.90;;;7.70;99.90;;;;;;5070439;28;20028;-54
2022/02/23 10:20:46;;;;;;;12.90;4.18;;;7.80;99.90;;;;;;5070847;28;20021;-54
2022/02/23 10:23:20;;;;;;;14.80;4.20;;;7.90;99.90;;;;;;5069811;28;20030;-55
2022/02/23 10:26:05;;;;;;;14.52;4.28;;;8.10;99.90;;;;;;5069840;28;20117;-55
2022/02/23 10:28:34;;;;;;;16.90;4.13;;;8.20;99.90;;;;;;5070280;28;20475;-55
2022/02/23 10:31:09;;;;;;;18.95;4.32;;;8.30;99.90;;;;;;5070203;28;20552;-52
2022/02/23 10:33:38;;;;;;;15.55;3.10;;;8.50;99.90;;;;;;5069978;28;20043;-53
2022/02/23 10:36:05;;;;;;;13.55;2.40;;;8.60;99.90;;;;;;5070187;28;20108;-55
2022/02/23 10:38:33;;;;;;;14.13;4.50;;;8.50;99.90;;;;;;5070132;28;20025;-55
2022/02/23 10:41:01;;;;;;;12.75;2.92;;;8.50;99.90;;;;;;5084135;28;20026;-54
2022/02/23 10:43:36;;;;;;;11.63;3.70;;;8.60;99.90;;;;;;5089941;28;20077;-56
2022/02/23 10:46:06;;;;;;;18.60;3.47;;;8.70;99.90;;;;;;5089424;28;20032;-57
2022/02/23 10:48:40;;;;;;;18.73;4.28;;;8.90;99.90;;;;;;5089993;28;20035;-56
2022/02/23 10:51:08;;;;;;;16.20;3.53;;;9.00;99.90;;;;;;5089943;28;20099;-56
2022/02/23 10:53:35;;;;;;;11.50;2.90;;;8.90;99.90;;;;;;5089670;28;20491;-54
2022/02/23 10:56:19;;;;;;;13.63;3.90;;;8.90;99.90;;;;;;5089790;28;20240;-54
2022/02/23 10:58:45;;;;;;;19.95;3.78;;;8.90;99.90;;;;;;5074781;28;20039;-53
2022/02/23 11:01:11;;;;;;;12.07;3.38;;;8.80;99.90;;;;;;5090084;28;20024;-55
2022/02/23 11:03:37;;;;;;;10.68;2.50;;;8.80;99.90;;;;;;5089666;28;20020;-55
2022/02/23 11:06:02;;;;;;;14.75;4.13;;;8.80;99.90;;;;;;5089274;28;20506;-56
2022/02/23 11:08:29;;;;;;;13.35;3.30;;;8.80;99.90;;;;;;5089716;28;20035;-53
2022/02/23 11:10:56;;;;;;;16.65;4.03;;;8.90;99.90;;;;;;5089784;28;20024;-57
2022/02/23 11:13:23;;;;;;;18.88;3.60;;;8.90;99.90;;;;;;5089662;28;20056;-56
2022/02/23 11:15:49;;;;;;;15.93;4.18;;;8.90;99.90;;;;;;5089910;28;20024;-57
2022/02/23 11:18:17;;;;;;;9.05;2.45;;;9.00;99.90;;;;;;5089557;28;20016;-54
2022/02/23 11:20:45;;;;;;;7.82;2.28;;;9.10;99.90;;;;;;5089763;28;20024;-56
2022/02/23 11:23:22;;;;;;;12.05;2.92;;;9.00;99.90;;;;;;5054520;28;20076;-56
2022/02/23 11:25:50;;;;;;;10.45;3.13;;;9.00;99.90;;;;;;5083637;28;20047;-56
2022/02/23 11:28:26;;;;;;;10.80;3.00;;;9.00;99.90;;;;;;5076334;28;20556;-57
2022/02/23 11:30:55;;;;;;;8.82;2.05;;;8.90;99.90;;;;;;5088206;28;20511;-57
2022/02/23 11:33:46;;;;;;;5.60;1.50;;;8.90;99.90;;;;;;5085419;28;20062;-54
2022/02/23 11:36:42;;;;;;;9.60;2.00;;;8.90;99.90;;;;;;5088287;28;20510;-53
2022/02/23 11:39:13;;;;;;;9.60;3.10;;;8.80;99.90;;;;;;5067640;28;20130;-55
2022/02/23 11:41:41;;;;;;;11.27;2.50;;;8.80;99.90;;;;;;5086416;28;20053;-53
2022/02/23 11:44:19;;;;;;;5.15;1.60;;;8.80;99.90;;;;;;5087460;28;20667;-56
2022/02/23 11:47:12;;;;;;;11.75;2.92;;;8.80;99.90;;;;;;5087339;28;20016;-56
2022/02/23 11:49:53;;;;;;;12.77;2.53;;;8.90;99.90;;;;;;5080214;28;20028;-53
2022/02/23 11:52:20;;;;;;;11.40;2.95;;;9.00;99.90;;;;;;5083592;28;20052;-54
2022/02/23 11:54:56;;;;;;;13.85;3.13;;;9.10;99.90;;;;;;5079909;28;20063;-56
2022/02/23 11:57:54;;;;;;;7.78;3.00;;;9.20;99.90;;;;;;5072668;28;20036;-54
2022/02/23 12:00:28;;;;;;;9.43;2.78;;;9.20;99.90;;;;;;5070655;28;20101;-56
2022/02/23 12:03:09;;;;;;;9.13;2.75;;;9.30;99.90;;;;;;5088762;28;20373;-54
2022/02/23 12:05:43;;;;;;;7.70;2.33;;;9.20;99.90;;;;;;5088754;28;20027;-55
2022/02/23 12:08:43;;;;;;;10.43;2.25;;;9.10;99.90;;;;;;5088160;28;20100;-57
2022/02/23 12:11:10;;;;;;;7.68;1.75;;;9.00;99.90;;;;;;5088541;28;20016;-55
2022/02/23 12:13:44;;;;;;;7.63;2.28;;;8.90;99.90;;;;;;5088523;28;20105;-53
2022/02/23 12:16:38;;;;;;;16.42;2.50;;;9.00;99.90;;;;;;5088884;28;20719;-54
2022/02/23 12:19:06;;;;;;;8.77;2.38;;;8.90;99.90;;;;;;5088895;28;20028;-54
2022/02/23 12:21:54;;;;;;;7.72;2.22;;;8.80;99.90;;;;;;5088737;28;20032;-53
2022/02/23 12:24:23;;;;;;;9.57;2.35;;;8.80;99.90;;;;;;5088544;28;20020;-55
2022/02/23 12:26:54;;;;;;;7.55;1.92;;;8.80;99.90;;;;;;5070469;28;20031;-53
2022/02/23 12:29:28;;;;;;;5.72;1.70;;;8.70;99.90;;;;;;5088559;28;20065;-53
2022/02/23 12:31:54;;;;;;;6.80;1.73;;;8.70;99.90;;;;;;5088883;28;20028;-55
2022/02/23 12:34:23;;;;;;;7.82;2.05;;;8.70;99.90;;;;;;5088885;28;20024;-58
2022/02/23 12:36:50;;;;;;;7.35;1.10;;;8.70;99.90;;;;;;5088362;28;20024;-56
2022/02/23 12:39:29;;;;;;;4.63;1.75;;;8.70;99.90;;;;;;5080837;28;20024;-54
2022/02/23 12:42:04;;;;;;;4.40;1.00;;;8.70;99.90;;;;;;5075682;28;20078;-57
2022/02/23 12:44:32;;;;;;;8.43;1.90;;;8.70;99.90;;;;;;5087347;28;20488;-51
2022/02/23 12:47:00;;;;;;;7.38;1.40;;;8.80;99.90;;;;;;5068647;28;20555;-54
2022/02/23 12:49:26;;;;;;;5.65;1.73;;;8.80;99.90;;;;;;5068920;28;20035;-52
2022/02/23 12:51:54;;;;;;;3.65;1.13;;;8.80;99.90;;;;;;5067699;28;20033;-52
2022/02/23 12:54:22;;;;;;;3.08;1.10;;;8.90;99.90;;;;;;5050135;28;20107;-54